sensor_id;sensor_type;location;lat;lon;timestamp;P1;durP1;ratioP1;P2;durP2;ratioP2
43813;SDS011;29669;55.706;37.656;2023-03-05T00:01:23;2.95;;;1.65;;
43813;SDS011;29669;55.706;37.656;2023-03-05T00:03:54;1.00;;;0.98;;
43813;SDS011;29669;55.706;37.656;2023-03-05T00:06:25;2.65;;;1.55;;
43813;SDS011;29669;55.706;37.656;2023-03-05T00:08:54;3.22;;;1.27;;
43813;SDS011;29669;55.706;37.656;2023-03-05T00:11:25;2.45;;;1.30;;
43813;SDS011;29669;55.706;37.656;2023-03-05T00:13:57;2.90;;;1.35;;
43813;SDS011;29669;55.706;37.656;2023-03-05T00:16:26;0.95;;;0.95;;
43813;SDS011;29669;55.706;37.656;2023-03-05T00:18:55;1.20;;;1.10;;
43813;SDS011;29669;55.706;37.656;2023-03-05T00:21:25;2.13;;;1.38;;
43813;SDS011;29669;55.706;37.656;2023-03-05T00:24:01;1.27;;;1.17;;
43813;SDS011;29669;55.706;37.656;2023-03-05T00:26:31;2.83;;;1.20;;
43813;SDS011;29669;55.706;37.656;2023-03-05T00:29:01;1.92;;;1.25;;
43813;SDS011;29669;55.706;37.656;2023-03-05T00:31:29;1.50;;;1.40;;
43813;SDS011;29669;55.706;37.656;2023-03-05T00:33:59;1.05;;;0.95;;
43813;SDS011;29669;55.706;37.656;2023-03-05T00:36:29;1.13;;;1.02;;
43813;SDS011;29669;55.706;37.656;2023-03-05T00:38:57;2.90;;;1.20;;
43813;SDS011;29669;55.706;37.656;2023-03-05T00:41:26;1.45;;;1.15;;
43813;SDS011;29669;55.706;37.656;2023-03-05T00:43:54;1.00;;;1.00;;
43813;SDS011;29669;55.706;37.656;2023-03-05T00:46:22;1.27;;;1.17;;
43813;SDS011;29669;55.706;37.656;2023-03-05T00:48:50;1.55;;;1.20;;
43813;SDS011;29669;55.706;37.656;2023-03-05T00:51:19;2.53;;;1.58;;
43813;SDS011;29669;55.706;37.656;2023-03-05T00:53:46;1.30;;;1.20;;
43813;SDS011;29669;55.706;37.656;2023-03-05T00:56:14;1.38;;;1.13;;
43813;SDS011;29669;55.706;37.656;2023-03-05T00:58:42;1.48;;;1.20;;
43813;SDS011;29669;55.706;37.656;2023-03-05T01:01:10;2.00;;;1.25;;
43813;SDS011;29669;55.706;37.656;2023-03-05T01:03:38;2.03;;;1.15;;
43813;SDS011;29669;55.706;37.656;2023-03-05T01:06:07;1.45;;;0.90;;
43813;SDS011;29669;55.706;37.656;2023-03-05T01:08:37;1.23;;;1.13;;
43813;SDS011;29669;55.706;37.656;2023-03-05T01:11:06;1.38;;;1.02;;
43813;SDS011;29669;55.706;37.656;2023-03-05T01:13:35;1.92;;;1.08;;
43813;SDS011;29669;55.706;37.656;2023-03-05T01:16:03;0.82;;;0.82;;
43813;SDS011;29669;55.706;37.656;2023-03-05T01:18:32;1.52;;;1.05;;
43813;SDS011;29669;55.706;37.656;2023-03-05T01:21:01;3.67;;;1.13;;
43813;SDS011;29669;55.706;37.656;2023-03-05T01:23:30;0.75;;;0.75;;
43813;SDS011;29669;55.706;37.656;2023-03-05T01:26:00;2.72;;;1.13;;
43813;SDS011;29669;55.706;37.656;2023-03-05T01:28:27;1.02;;;0.93;;
43813;SDS011;29669;55.706;37.656;2023-03-05T01:30:55;0.75;;;0.75;;
43813;SDS011;29669;55.706;37.656;2023-03-05T01:33:23;1.10;;;1.00;;
43813;SDS011;29669;55.706;37.656;2023-03-05T01:35:51;1.20;;;1.10;;
43813;SDS011;29669;55.706;37.656;2023-03-05T01:38:19;1.27;;;1.17;;
43813;SDS011;29669;55.706;37.656;2023-03-05T01:40:47;1.17;;;1.00;;
43813;SDS011;29669;55.706;37.656;2023-03-05T01:43:21;1.15;;;0.63;;
43813;SDS011;29669;55.706;37.656;2023-03-05T01:49:33;0.85;;;0.80;;
43813;SDS011;29669;55.706;37.656;2023-03-05T01:51:47;1.17;;;0.80;;
43813;SDS011;29669;55.706;37.656;2023-03-05T01:54:38;2.88;;;1.35;;
43813;SDS011;29669;55.706;37.656;2023-03-05T01:57:15;0.60;;;0.60;;
43813;SDS011;29669;55.706;37.656;2023-03-05T01:59:52;1.10;;;0.95;;
43813;SDS011;29669;55.706;37.656;2023-03-05T02:02:27;2.40;;;1.23;;
43813;SDS011;29669;55.706;37.656;2023-03-05T02:04:58;2.67;;;1.13;;
43813;SDS011;29669;55.706;37.656;2023-03-05T02:07:30;1.25;;;0.93;;
43813;SDS011;29669;55.706;37.656;2023-03-05T02:09:59;1.23;;;1.13;;
43813;SDS011;29669;55.706;37.656;2023-03-05T02:12:29;1.20;;;1.05;;
43813;SDS011;29669;55.706;37.656;2023-03-05T02:15:17;1.42;;;0.80;;
43813;SDS011;29669;55.706;37.656;2023-03-05T02:17:45;0.80;;;0.80;;
43813;SDS011;29669;55.706;37.656;2023-03-05T02:20:23;1.13;;;0.65;;
43813;SDS011;29669;55.706;37.656;2023-03-05T02:22:53;0.80;;;0.77;;
43813;SDS011;29669;55.706;37.656;2023-03-05T02:25:22;1.23;;;1.13;;
43813;SDS011;29669;55.706;37.656;2023-03-05T02:27:58;2.05;;;0.85;;
43813;SDS011;29669;55.706;37.656;2023-03-05T02:30:29;1.00;;;0.90;;
43813;SDS011;29669;55.706;37.656;2023-03-05T02:32:57;2.80;;;1.10;;
43813;SDS011;29669;55.706;37.656;2023-03-05T02:35:26;1.52;;;1.27;;
43813;SDS011;29669;55.706;37.656;2023-03-05T02:37:53;3.22;;;1.17;;
43813;SDS011;29669;55.706;37.656;2023-03-05T02:40:22;3.08;;;1.00;;
43813;SDS011;29669;55.706;37.656;2023-03-05T02:42:50;2.00;;;1.13;;
43813;SDS011;29669;55.706;37.656;2023-03-05T02:45:18;1.10;;;1.00;;
43813;SDS011;29669;55.706;37.656;2023-03-05T02:47:46;0.90;;;0.90;;
43813;SDS011;29669;55.706;37.656;2023-03-05T02:50:14;1.10;;;1.00;;
43813;SDS011;29669;55.706;37.656;2023-03-05T02:52:42;1.75;;;1.40;;
43813;SDS011;29669;55.706;37.656;2023-03-05T02:55:13;1.83;;;1.10;;
43813;SDS011;29669;55.706;37.656;2023-03-05T02:57:42;0.85;;;0.85;;
43813;SDS011;29669;55.706;37.656;2023-03-05T03:00:10;2.10;;;1.17;;
43813;SDS011;29669;55.706;37.656;2023-03-05T03:02:38;3.25;;;1.35;;
43813;SDS011;29669;55.706;37.656;2023-03-05T03:05:06;1.00;;;0.90;;
43813;SDS011;29669;55.706;37.656;2023-03-05T03:07:34;1.38;;;0.98;;
43813;SDS011;29669;55.706;37.656;2023-03-05T03:10:03;1.30;;;1.20;;
43813;SDS011;29669;55.706;37.656;2023-03-05T03:12:35;2.20;;;1.10;;
43813;SDS011;29669;55.706;37.656;2023-03-05T03:15:05;1.77;;;0.90;;
43813;SDS011;29669;55.706;37.656;2023-03-05T03:17:34;2.15;;;1.13;;
43813;SDS011;29669;55.706;37.656;2023-03-05T03:20:04;0.93;;;0.93;;
43813;SDS011;29669;55.706;37.656;2023-03-05T03:22:34;0.63;;;0.63;;
43813;SDS011;29669;55.706;37.656;2023-03-05T03:25:02;1.80;;;1.17;;
43813;SDS011;29669;55.706;37.656;2023-03-05T03:27:30;1.33;;;1.17;;
43813;SDS011;29669;55.706;37.656;2023-03-05T03:29:58;1.00;;;0.90;;
43813;SDS011;29669;55.706;37.656;2023-03-05T03:32:31;2.10;;;1.00;;
43813;SDS011;29669;55.706;37.656;2023-03-05T03:34:59;3.35;;;0.90;;
43813;SDS011;29669;55.706;37.656;2023-03-05T03:37:29;4.30;;;1.30;;
43813;SDS011;29669;55.706;37.656;2023-03-05T03:39:57;31.75;;;15.70;;
43813;SDS011;29669;55.706;37.656;2023-03-05T03:42:24;1.42;;;1.33;;
43813;SDS011;29669;55.706;37.656;2023-03-05T03:44:52;3.10;;;1.10;;
43813;SDS011;29669;55.706;37.656;2023-03-05T03:47:20;1.38;;;0.80;;
43813;SDS011;29669;55.706;37.656;2023-03-05T03:49:47;1.23;;;0.93;;
43813;SDS011;29669;55.706;37.656;2023-03-05T03:52:15;3.05;;;1.75;;
43813;SDS011;29669;55.706;37.656;2023-03-05T03:54:43;2.47;;;1.60;;
43813;SDS011;29669;55.706;37.656;2023-03-05T03:57:11;2.25;;;0.90;;
43813;SDS011;29669;55.706;37.656;2023-03-05T03:59:38;4.10;;;1.15;;
43813;SDS011;29669;55.706;37.656;2023-03-05T04:02:06;2.17;;;1.25;;
43813;SDS011;29669;55.706;37.656;2023-03-05T04:04:33;1.33;;;1.20;;
43813;SDS011;29669;55.706;37.656;2023-03-05T04:07:01;1.20;;;1.10;;
43813;SDS011;29669;55.706;37.656;2023-03-05T04:09:28;0.80;;;0.80;;
43813;SDS011;29669;55.706;37.656;2023-03-05T04:11:56;1.30;;;1.17;;
43813;SDS011;29669;55.706;37.656;2023-03-05T04:14:24;4.93;;;1.38;;
43813;SDS011;29669;55.706;37.656;2023-03-05T04:16:52;2.40;;;1.10;;
43813;SDS011;29669;55.706;37.656;2023-03-05T04:19:20;3.85;;;1.40;;
43813;SDS011;29669;55.706;37.656;2023-03-05T04:21:48;1.13;;;1.02;;
43813;SDS011;29669;55.706;37.656;2023-03-05T04:24:16;2.33;;;1.40;;
43813;SDS011;29669;55.706;37.656;2023-03-05T04:26:44;3.10;;;1.10;;
43813;SDS011;29669;55.706;37.656;2023-03-05T04:29:11;2.88;;;1.02;;
43813;SDS011;29669;55.706;37.656;2023-03-05T04:31:39;1.90;;;1.25;;
43813;SDS011;29669;55.706;37.656;2023-03-05T04:34:06;0.95;;;0.95;;
43813;SDS011;29669;55.706;37.656;2023-03-05T04:36:34;1.30;;;1.23;;
43813;SDS011;29669;55.706;37.656;2023-03-05T04:39:03;2.20;;;1.10;;
43813;SDS011;29669;55.706;37.656;2023-03-05T04:41:31;2.45;;;0.98;;
43813;SDS011;29669;55.706;37.656;2023-03-05T04:43:58;1.23;;;1.13;;
43813;SDS011;29669;55.706;37.656;2023-03-05T04:46:26;2.65;;;1.20;;
43813;SDS011;29669;55.706;37.656;2023-03-05T04:48:54;2.08;;;0.90;;
43813;SDS011;29669;55.706;37.656;2023-03-05T04:51:23;2.22;;;1.00;;
43813;SDS011;29669;55.706;37.656;2023-03-05T04:53:51;0.80;;;0.80;;
43813;SDS011;29669;55.706;37.656;2023-03-05T04:56:18;1.90;;;0.90;;
43813;SDS011;29669;55.706;37.656;2023-03-05T04:58:46;0.95;;;0.90;;
43813;SDS011;29669;55.706;37.656;2023-03-05T05:01:14;0.98;;;0.90;;
43813;SDS011;29669;55.706;37.656;2023-03-05T05:03:42;2.42;;;1.15;;
43813;SDS011;29669;55.706;37.656;2023-03-05T05:06:10;1.40;;;0.90;;
43813;SDS011;29669;55.706;37.656;2023-03-05T05:08:38;4.13;;;1.85;;
43813;SDS011;29669;55.706;37.656;2023-03-05T05:11:06;2.20;;;0.98;;
43813;SDS011;29669;55.706;37.656;2023-03-05T05:13:34;1.85;;;1.15;;
43813;SDS011;29669;55.706;37.656;2023-03-05T05:16:05;1.33;;;1.00;;
43813;SDS011;29669;55.706;37.656;2023-03-05T05:18:34;1.48;;;1.30;;
43813;SDS011;29669;55.706;37.656;2023-03-05T05:21:05;1.05;;;0.88;;
43813;SDS011;29669;55.706;37.656;2023-03-05T05:23:35;1.13;;;1.02;;
43813;SDS011;29669;55.706;37.656;2023-03-05T05:26:05;1.88;;;1.23;;
43813;SDS011;29669;55.706;37.656;2023-03-05T05:28:34;2.60;;;0.95;;
43813;SDS011;29669;55.706;37.656;2023-03-05T05:31:05;2.80;;;1.13;;
43813;SDS011;29669;55.706;37.656;2023-03-05T05:33:34;1.95;;;1.02;;
43813;SDS011;29669;55.706;37.656;2023-03-05T05:36:06;1.85;;;0.95;;
43813;SDS011;29669;55.706;37.656;2023-03-05T05:38:35;1.98;;;0.85;;
43813;SDS011;29669;55.706;37.656;2023-03-05T05:41:08;2.00;;;0.90;;
43813;SDS011;29669;55.706;37.656;2023-03-05T05:43:39;4.25;;;0.93;;
43813;SDS011;29669;55.706;37.656;2023-03-05T05:46:09;2.00;;;1.15;;
43813;SDS011;29669;55.706;37.656;2023-03-05T05:48:39;2.08;;;1.05;;
43813;SDS011;29669;55.706;37.656;2023-03-05T05:51:08;1.15;;;0.93;;
43813;SDS011;29669;55.706;37.656;2023-03-05T05:53:37;1.48;;;1.20;;
43813;SDS011;29669;55.706;37.656;2023-03-05T05:56:06;1.58;;;1.08;;
43813;SDS011;29669;55.706;37.656;2023-03-05T05:58:36;3.33;;;0.90;;
43813;SDS011;29669;55.706;37.656;2023-03-05T06:01:15;1.08;;;1.00;;
43813;SDS011;29669;55.706;37.656;2023-03-05T06:03:45;2.40;;;1.17;;
43813;SDS011;29669;55.706;37.656;2023-03-05T06:06:14;5.93;;;1.40;;
43813;SDS011;29669;55.706;37.656;2023-03-05T06:08:43;1.50;;;0.73;;
43813;SDS011;29669;55.706;37.656;2023-03-05T06:11:11;1.10;;;1.00;;
43813;SDS011;29669;55.706;37.656;2023-03-05T06:13:39;5.50;;;1.30;;
43813;SDS011;29669;55.706;37.656;2023-03-05T06:16:11;1.27;;;0.80;;
43813;SDS011;29669;55.706;37.656;2023-03-05T06:18:41;2.50;;;1.00;;
43813;SDS011;29669;55.706;37.656;2023-03-05T06:21:13;1.75;;;1.33;;
43813;SDS011;29669;55.706;37.656;2023-03-05T06:23:43;1.02;;;0.93;;
43813;SDS011;29669;55.706;37.656;2023-03-05T06:26:12;1.88;;;0.90;;
43813;SDS011;29669;55.706;37.656;2023-03-05T06:28:41;4.50;;;2.55;;
43813;SDS011;29669;55.706;37.656;2023-03-05T06:31:10;2.10;;;1.40;;
43813;SDS011;29669;55.706;37.656;2023-03-05T06:33:40;1.40;;;1.20;;
43813;SDS011;29669;55.706;37.656;2023-03-05T06:36:09;5.97;;;1.05;;
43813;SDS011;29669;55.706;37.656;2023-03-05T06:38:39;7.18;;;1.30;;
43813;SDS011;29669;55.706;37.656;2023-03-05T06:41:09;2.28;;;1.05;;
43813;SDS011;29669;55.706;37.656;2023-03-05T06:43:38;1.77;;;1.05;;
43813;SDS011;29669;55.706;37.656;2023-03-05T06:46:10;1.00;;;0.90;;
43813;SDS011;29669;55.706;37.656;2023-03-05T06:48:59;1.05;;;0.98;;
43813;SDS011;29669;55.706;37.656;2023-03-05T06:51:30;1.52;;;1.13;;
43813;SDS011;29669;55.706;37.656;2023-03-05T06:54:01;2.28;;;1.25;;
43813;SDS011;29669;55.706;37.656;2023-03-05T06:56:31;1.30;;;1.00;;
43813;SDS011;29669;55.706;37.656;2023-03-05T06:59:01;4.30;;;1.17;;
43813;SDS011;29669;55.706;37.656;2023-03-05T07:01:29;2.00;;;1.40;;
43813;SDS011;29669;55.706;37.656;2023-03-05T07:03:57;1.77;;;1.52;;
43813;SDS011;29669;55.706;37.656;2023-03-05T07:06:27;2.90;;;1.52;;
43813;SDS011;29669;55.706;37.656;2023-03-05T07:08:59;4.93;;;1.98;;
43813;SDS011;29669;55.706;37.656;2023-03-05T07:11:28;4.43;;;2.30;;
43813;SDS011;29669;55.706;37.656;2023-03-05T07:13:57;3.08;;;1.42;;
43813;SDS011;29669;55.706;37.656;2023-03-05T07:16:27;2.65;;;1.77;;
43813;SDS011;29669;55.706;37.656;2023-03-05T07:18:57;2.25;;;1.30;;
43813;SDS011;29669;55.706;37.656;2023-03-05T07:21:27;3.67;;;2.00;;
43813;SDS011;29669;55.706;37.656;2023-03-05T07:23:58;2.05;;;1.30;;
43813;SDS011;29669;55.706;37.656;2023-03-05T07:26:27;3.67;;;1.63;;
43813;SDS011;29669;55.706;37.656;2023-03-05T07:28:57;3.17;;;1.73;;
43813;SDS011;29669;55.706;37.656;2023-03-05T07:31:26;7.57;;;1.60;;
43813;SDS011;29669;55.706;37.656;2023-03-05T07:33:57;2.78;;;1.80;;
43813;SDS011;29669;55.706;37.656;2023-03-05T07:36:29;8.10;;;2.55;;
43813;SDS011;29669;55.706;37.656;2023-03-05T07:38:57;6.50;;;2.30;;
43813;SDS011;29669;55.706;37.656;2023-03-05T07:41:25;1.60;;;1.50;;
43813;SDS011;29669;55.706;37.656;2023-03-05T07:43:53;5.03;;;1.70;;
43813;SDS011;29669;55.706;37.656;2023-03-05T07:46:23;2.95;;;1.90;;
43813;SDS011;29669;55.706;37.656;2023-03-05T07:48:53;2.40;;;1.80;;
43813;SDS011;29669;55.706;37.656;2023-03-05T07:51:22;2.95;;;1.98;;
43813;SDS011;29669;55.706;37.656;2023-03-05T07:53:52;3.58;;;1.98;;
43813;SDS011;29669;55.706;37.656;2023-03-05T07:56:22;4.40;;;1.70;;
43813;SDS011;29669;55.706;37.656;2023-03-05T07:59:10;6.13;;;1.90;;
43813;SDS011;29669;55.706;37.656;2023-03-05T08:01:39;6.15;;;2.15;;
43813;SDS011;29669;55.706;37.656;2023-03-05T08:04:07;4.32;;;2.15;;
43813;SDS011;29669;55.706;37.656;2023-03-05T08:06:38;2.97;;;2.65;;
43813;SDS011;29669;55.706;37.656;2023-03-05T08:09:07;2.78;;;1.67;;
43813;SDS011;29669;55.706;37.656;2023-03-05T08:11:35;4.13;;;2.42;;
43813;SDS011;29669;55.706;37.656;2023-03-05T08:14:03;2.70;;;2.20;;
43813;SDS011;29669;55.706;37.656;2023-03-05T08:16:31;4.63;;;2.70;;
43813;SDS011;29669;55.706;37.656;2023-03-05T08:18:59;6.68;;;2.85;;
43813;SDS011;29669;55.706;37.656;2023-03-05T08:21:29;6.25;;;2.63;;
43813;SDS011;29669;55.706;37.656;2023-03-05T08:24:03;4.00;;;2.63;;
43813;SDS011;29669;55.706;37.656;2023-03-05T08:26:34;3.90;;;2.90;;
43813;SDS011;29669;55.706;37.656;2023-03-05T08:29:07;4.10;;;2.67;;
43813;SDS011;29669;55.706;37.656;2023-03-05T08:31:36;8.88;;;3.17;;
43813;SDS011;29669;55.706;37.656;2023-03-05T08:34:05;2.75;;;2.30;;
43813;SDS011;29669;55.706;37.656;2023-03-05T08:36:33;2.75;;;2.22;;
43813;SDS011;29669;55.706;37.656;2023-03-05T08:39:02;4.97;;;2.70;;
43813;SDS011;29669;55.706;37.656;2023-03-05T08:41:30;3.85;;;2.83;;
43813;SDS011;29669;55.706;37.656;2023-03-05T08:43:58;3.97;;;2.40;;
43813;SDS011;29669;55.706;37.656;2023-03-05T08:46:26;4.25;;;2.75;;
43813;SDS011;29669;55.706;37.656;2023-03-05T08:48:54;5.53;;;3.28;;
43813;SDS011;29669;55.706;37.656;2023-03-05T08:51:23;12.52;;;3.55;;
43813;SDS011;29669;55.706;37.656;2023-03-05T08:53:53;4.55;;;2.70;;
43813;SDS011;29669;55.706;37.656;2023-03-05T08:56:22;5.63;;;3.40;;
43813;SDS011;29669;55.706;37.656;2023-03-05T08:58:49;5.65;;;2.95;;
43813;SDS011;29669;55.706;37.656;2023-03-05T09:01:19;6.18;;;4.07;;
43813;SDS011;29669;55.706;37.656;2023-03-05T09:03:47;6.10;;;3.90;;
43813;SDS011;29669;55.706;37.656;2023-03-05T09:06:15;6.45;;;3.95;;
43813;SDS011;29669;55.706;37.656;2023-03-05T09:08:43;7.13;;;4.05;;
43813;SDS011;29669;55.706;37.656;2023-03-05T09:11:15;7.63;;;4.28;;
43813;SDS011;29669;55.706;37.656;2023-03-05T09:13:44;10.63;;;5.65;;
43813;SDS011;29669;55.706;37.656;2023-03-05T09:16:13;6.82;;;4.28;;
43813;SDS011;29669;55.706;37.656;2023-03-05T09:18:46;6.88;;;5.18;;
43813;SDS011;29669;55.706;37.656;2023-03-05T09:21:17;10.15;;;4.60;;
43813;SDS011;29669;55.706;37.656;2023-03-05T09:23:45;6.93;;;4.07;;
43813;SDS011;29669;55.706;37.656;2023-03-05T09:26:14;5.45;;;3.47;;
43813;SDS011;29669;55.706;37.656;2023-03-05T09:28:48;6.15;;;4.15;;
43813;SDS011;29669;55.706;37.656;2023-03-05T09:31:16;6.90;;;3.50;;
43813;SDS011;29669;55.706;37.656;2023-03-05T09:33:47;11.32;;;4.75;;
43813;SDS011;29669;55.706;37.656;2023-03-05T09:36:17;8.13;;;4.68;;
43813;SDS011;29669;55.706;37.656;2023-03-05T09:38:55;7.70;;;3.75;;
43813;SDS011;29669;55.706;37.656;2023-03-05T09:41:25;5.00;;;4.05;;
43813;SDS011;29669;55.706;37.656;2023-03-05T09:44:15;7.72;;;3.80;;
43813;SDS011;29669;55.706;37.656;2023-03-05T09:55:28;7.22;;;4.15;;
43813;SDS011;29669;55.706;37.656;2023-03-05T09:58:04;7.00;;;4.18;;
43813;SDS011;29669;55.706;37.656;2023-03-05T10:00:40;7.50;;;5.60;;
43813;SDS011;29669;55.706;37.656;2023-03-05T10:03:24;12.52;;;5.20;;
43813;SDS011;29669;55.706;37.656;2023-03-05T10:06:14;10.05;;;4.90;;
43813;SDS011;29669;55.706;37.656;2023-03-05T10:14:49;6.13;;;4.40;;
43813;SDS011;29669;55.706;37.656;2023-03-05T10:17:23;11.15;;;5.85;;
43813;SDS011;29669;55.706;37.656;2023-03-05T10:25:57;5.40;;;3.72;;
43813;SDS011;29669;55.706;37.656;2023-03-05T10:53:56;5.97;;;4.25;;
43813;SDS011;29669;55.706;37.656;2023-03-05T10:56:33;8.32;;;4.90;;
43813;SDS011;29669;55.706;37.656;2023-03-05T10:59:00;7.43;;;5.03;;
43813;SDS011;29669;55.706;37.656;2023-03-05T11:01:32;10.60;;;5.78;;
43813;SDS011;29669;55.706;37.656;2023-03-05T11:04:02;8.60;;;5.32;;
43813;SDS011;29669;55.706;37.656;2023-03-05T11:06:39;9.35;;;5.35;;
43813;SDS011;29669;55.706;37.656;2023-03-05T11:09:14;8.35;;;5.40;;
43813;SDS011;29669;55.706;37.656;2023-03-05T11:12:00;11.95;;;6.20;;
43813;SDS011;29669;55.706;37.656;2023-03-05T11:14:34;10.80;;;5.57;;
43813;SDS011;29669;55.706;37.656;2023-03-05T11:18:02;8.85;;;5.75;;
43813;SDS011;29669;55.706;37.656;2023-03-05T11:23:03;13.05;;;6.00;;
43813;SDS011;29669;55.706;37.656;2023-03-05T11:25:35;9.02;;;6.60;;
43813;SDS011;29669;55.706;37.656;2023-03-05T11:28:31;11.48;;;6.50;;
43813;SDS011;29669;55.706;37.656;2023-03-05T11:36:39;10.03;;;5.60;;
43813;SDS011;29669;55.706;37.656;2023-03-05T11:39:18;9.40;;;5.00;;
43813;SDS011;29669;55.706;37.656;2023-03-05T11:41:50;9.95;;;6.15;;
43813;SDS011;29669;55.706;37.656;2023-03-05T11:44:27;8.00;;;5.53;;
43813;SDS011;29669;55.706;37.656;2023-03-05T11:47:03;5.32;;;3.75;;
43813;SDS011;29669;55.706;37.656;2023-03-05T11:50:19;8.63;;;6.15;;
43813;SDS011;29669;55.706;37.656;2023-03-05T11:55:27;5.97;;;4.68;;
43813;SDS011;29669;55.706;37.656;2023-03-05T12:00:44;5.97;;;4.20;;
43813;SDS011;29669;55.706;37.656;2023-03-05T12:03:20;7.80;;;4.20;;
43813;SDS011;29669;55.706;37.656;2023-03-05T12:08:48;7.93;;;5.23;;
43813;SDS011;29669;55.706;37.656;2023-03-05T12:11:25;7.03;;;4.90;;
43813;SDS011;29669;55.706;37.656;2023-03-05T12:16:37;9.85;;;5.47;;
43813;SDS011;29669;55.706;37.656;2023-03-05T12:22:02;5.28;;;4.03;;
43813;SDS011;29669;55.706;37.656;2023-03-05T12:24:33;3.55;;;2.97;;
43813;SDS011;29669;55.706;37.656;2023-03-05T12:29:44;4.80;;;3.45;;
43813;SDS011;29669;55.706;37.656;2023-03-05T12:53:12;6.22;;;4.50;;
43813;SDS011;29669;55.706;37.656;2023-03-05T12:55:50;7.43;;;4.32;;
43813;SDS011;29669;55.706;37.656;2023-03-05T12:58:44;6.82;;;4.10;;
43813;SDS011;29669;55.706;37.656;2023-03-05T13:01:26;5.05;;;4.18;;
43813;SDS011;29669;55.706;37.656;2023-03-05T13:04:11;7.57;;;4.63;;
43813;SDS011;29669;55.706;37.656;2023-03-05T13:06:46;6.25;;;3.85;;
43813;SDS011;29669;55.706;37.656;2023-03-05T13:09:26;8.45;;;4.47;;
43813;SDS011;29669;55.706;37.656;2023-03-05T13:11:58;8.50;;;5.20;;
43813;SDS011;29669;55.706;37.656;2023-03-05T13:14:46;5.75;;;4.78;;
43813;SDS011;29669;55.706;37.656;2023-03-05T13:17:29;6.97;;;5.20;;
43813;SDS011;29669;55.706;37.656;2023-03-05T13:23:17;6.80;;;5.43;;
43813;SDS011;29669;55.706;37.656;2023-03-05T13:25:57;7.53;;;4.65;;
43813;SDS011;29669;55.706;37.656;2023-03-05T13:28:28;10.88;;;5.15;;
43813;SDS011;29669;55.706;37.656;2023-03-05T13:31:01;8.70;;;4.55;;
43813;SDS011;29669;55.706;37.656;2023-03-05T13:33:52;5.85;;;3.97;;
43813;SDS011;29669;55.706;37.656;2023-03-05T13:36:25;4.45;;;3.58;;
43813;SDS011;29669;55.706;37.656;2023-03-05T13:38:54;5.78;;;3.85;;
43813;SDS011;29669;55.706;37.656;2023-03-05T13:41:23;5.20;;;3.72;;
43813;SDS011;29669;55.706;37.656;2023-03-05T13:43:56;5.22;;;3.65;;
43813;SDS011;29669;55.706;37.656;2023-03-05T13:46:36;6.40;;;4.05;;
43813;SDS011;29669;55.706;37.656;2023-03-05T13:51:52;6.90;;;3.85;;
43813;SDS011;29669;55.706;37.656;2023-03-05T13:54:25;6.47;;;4.10;;
43813;SDS011;29669;55.706;37.656;2023-03-05T13:56:56;8.48;;;4.38;;
43813;SDS011;29669;55.706;37.656;2023-03-05T13:59:25;7.07;;;4.45;;
43813;SDS011;29669;55.706;37.656;2023-03-05T14:02:00;5.13;;;3.90;;
43813;SDS011;29669;55.706;37.656;2023-03-05T14:04:35;7.43;;;4.43;;
43813;SDS011;29669;55.706;37.656;2023-03-05T14:12:32;10.50;;;4.65;;
43813;SDS011;29669;55.706;37.656;2023-03-05T14:15:04;6.65;;;4.03;;
43813;SDS011;29669;55.706;37.656;2023-03-05T14:20:39;10.55;;;4.13;;
43813;SDS011;29669;55.706;37.656;2023-03-05T14:23:42;6.70;;;4.30;;
43813;SDS011;29669;55.706;37.656;2023-03-05T14:29:02;5.30;;;3.67;;
43813;SDS011;29669;55.706;37.656;2023-03-05T14:35:01;7.00;;;3.60;;
43813;SDS011;29669;55.706;37.656;2023-03-05T14:37:22;5.32;;;3.50;;
43813;SDS011;29669;55.706;37.656;2023-03-05T14:39:58;5.95;;;3.00;;
43813;SDS011;29669;55.706;37.656;2023-03-05T14:42:33;5.55;;;3.45;;
43813;SDS011;29669;55.706;37.656;2023-03-05T14:45:11;5.03;;;4.03;;
43813;SDS011;29669;55.706;37.656;2023-03-05T14:47:42;8.48;;;4.25;;
43813;SDS011;29669;55.706;37.656;2023-03-05T14:50:17;12.70;;;4.82;;
43813;SDS011;29669;55.706;37.656;2023-03-05T14:52:48;6.95;;;3.63;;
43813;SDS011;29669;55.706;37.656;2023-03-05T14:55:26;5.78;;;3.75;;
43813;SDS011;29669;55.706;37.656;2023-03-05T14:58:14;5.68;;;3.85;;
43813;SDS011;29669;55.706;37.656;2023-03-05T15:00:45;13.95;;;4.88;;
43813;SDS011;29669;55.706;37.656;2023-03-05T15:03:17;6.30;;;4.13;;
43813;SDS011;29669;55.706;37.656;2023-03-05T15:05:47;8.10;;;4.38;;
43813;SDS011;29669;55.706;37.656;2023-03-05T15:08:21;5.68;;;4.25;;
43813;SDS011;29669;55.706;37.656;2023-03-05T15:10:55;6.00;;;3.92;;
43813;SDS011;29669;55.706;37.656;2023-03-05T15:13:24;7.95;;;4.05;;
43813;SDS011;29669;55.706;37.656;2023-03-05T15:15:53;9.13;;;3.80;;
43813;SDS011;29669;55.706;37.656;2023-03-05T15:18:21;9.85;;;4.65;;
43813;SDS011;29669;55.706;37.656;2023-03-05T15:20:50;5.35;;;4.43;;
43813;SDS011;29669;55.706;37.656;2023-03-05T15:23:19;8.02;;;4.05;;
43813;SDS011;29669;55.706;37.656;2023-03-05T15:25:49;7.75;;;3.75;;
43813;SDS011;29669;55.706;37.656;2023-03-05T15:28:17;4.68;;;3.17;;
43813;SDS011;29669;55.706;37.656;2023-03-05T15:30:46;7.13;;;3.22;;
43813;SDS011;29669;55.706;37.656;2023-03-05T15:33:18;7.43;;;3.55;;
43813;SDS011;29669;55.706;37.656;2023-03-05T15:35:46;6.13;;;3.25;;
43813;SDS011;29669;55.706;37.656;2023-03-05T15:38:14;7.22;;;4.38;;
43813;SDS011;29669;55.706;37.656;2023-03-05T15:40:46;6.43;;;3.95;;
43813;SDS011;29669;55.706;37.656;2023-03-05T15:43:16;4.15;;;2.90;;
43813;SDS011;29669;55.706;37.656;2023-03-05T15:45:45;4.97;;;3.55;;
43813;SDS011;29669;55.706;37.656;2023-03-05T15:48:14;6.95;;;4.05;;
43813;SDS011;29669;55.706;37.656;2023-03-05T15:50:42;5.25;;;3.42;;
43813;SDS011;29669;55.706;37.656;2023-03-05T15:53:12;8.68;;;3.35;;
43813;SDS011;29669;55.706;37.656;2023-03-05T15:55:44;5.60;;;3.58;;
43813;SDS011;29669;55.706;37.656;2023-03-05T15:58:13;5.25;;;3.15;;
43813;SDS011;29669;55.706;37.656;2023-03-05T16:00:43;7.45;;;3.90;;
43813;SDS011;29669;55.706;37.656;2023-03-05T16:03:14;5.65;;;3.58;;
43813;SDS011;29669;55.706;37.656;2023-03-05T16:05:46;7.10;;;3.35;;
43813;SDS011;29669;55.706;37.656;2023-03-05T16:08:15;8.95;;;4.18;;
43813;SDS011;29669;55.706;37.656;2023-03-05T16:10:44;4.53;;;3.47;;
43813;SDS011;29669;55.706;37.656;2023-03-05T16:13:21;5.88;;;3.22;;
43813;SDS011;29669;55.706;37.656;2023-03-05T16:16:02;6.05;;;3.63;;
43813;SDS011;29669;55.706;37.656;2023-03-05T16:19:07;5.30;;;3.45;;
43813;SDS011;29669;55.706;37.656;2023-03-05T16:21:37;6.10;;;3.50;;
43813;SDS011;29669;55.706;37.656;2023-03-05T16:24:12;6.80;;;4.10;;
43813;SDS011;29669;55.706;37.656;2023-03-05T16:26:43;6.05;;;3.65;;
43813;SDS011;29669;55.706;37.656;2023-03-05T16:29:12;5.57;;;3.45;;
43813;SDS011;29669;55.706;37.656;2023-03-05T16:31:41;4.80;;;3.08;;
43813;SDS011;29669;55.706;37.656;2023-03-05T16:34:12;3.78;;;2.67;;
43813;SDS011;29669;55.706;37.656;2023-03-05T16:36:47;6.05;;;3.67;;
43813;SDS011;29669;55.706;37.656;2023-03-05T16:39:19;8.55;;;4.50;;
43813;SDS011;29669;55.706;37.656;2023-03-05T16:41:52;7.65;;;4.00;;
43813;SDS011;29669;55.706;37.656;2023-03-05T16:44:38;6.90;;;3.30;;
43813;SDS011;29669;55.706;37.656;2023-03-05T16:47:20;7.80;;;5.53;;
43813;SDS011;29669;55.706;37.656;2023-03-05T16:49:59;6.15;;;3.45;;
43813;SDS011;29669;55.706;37.656;2023-03-05T16:53:05;4.50;;;3.72;;
43813;SDS011;29669;55.706;37.656;2023-03-05T16:55:56;4.63;;;2.70;;